createdAt,value
2022-10-25T00:01:44.104Z,12.89
2022-10-25T00:04:10.845Z,12.85
2022-10-25T00:06:37.549Z,12.82
2022-10-25T00:09:04.266Z,12.79
2022-10-25T00:11:32.706Z,12.83
2022-10-25T00:14:03.022Z,12.85
2022-10-25T00:16:32.906Z,12.91
2022-10-25T00:18:59.549Z,12.96
2022-10-25T00:21:26.581Z,13.02
2022-10-25T00:23:53.775Z,13.10
2022-10-25T00:26:21.139Z,13.12
2022-10-25T00:28:48.016Z,13.15
2022-10-25T00:31:16.607Z,13.21
2022-10-25T00:33:44.738Z,13.18
2022-10-25T00:36:20.130Z,13.22
2022-10-25T00:38:47.527Z,13.16
2022-10-25T00:41:22.793Z,13.07
2022-10-25T00:43:55.518Z,13.01
2022-10-25T00:46:29.181Z,13.03
2022-10-25T00:49:03.222Z,13.11
2022-10-25T00:51:41.685Z,13.11
2022-10-25T00:54:11.035Z,12.96
2022-10-25T00:56:40.609Z,12.85
2022-10-25T00:59:10.651Z,12.80
2022-10-25T01:01:37.575Z,12.75
2022-10-25T01:04:09.222Z,12.76
2022-10-25T01:06:43.177Z,12.75
2022-10-25T01:09:13.603Z,12.68
2022-10-25T01:11:40.242Z,12.77
2022-10-25T01:14:09.354Z,12.75
2022-10-25T01:17:06.853Z,12.72
2022-10-25T01:19:39.454Z,12.70
2022-10-25T01:22:19.983Z,12.68
2022-10-25T01:24:46.473Z,12.70
2022-10-25T01:27:26.357Z,12.69
2022-10-25T01:30:03.396Z,12.61
2022-10-25T01:32:56.300Z,12.57
2022-10-25T01:35:38.086Z,12.56
2022-10-25T01:38:35.403Z,12.52
2022-10-25T01:41:18.548Z,12.48
2022-10-25T01:44:21.981Z,12.50
2022-10-25T01:46:56.607Z,12.43
2022-10-25T01:49:28.670Z,12.40
2022-10-25T01:51:55.259Z,12.35
2022-10-25T01:54:27.525Z,12.36
2022-10-25T01:57:18.651Z,12.28
2022-10-25T02:00:03.744Z,12.26
2022-10-25T02:03:03.169Z,12.26
2022-10-25T02:05:32.675Z,12.27
2022-10-25T02:08:08.561Z,12.37
2022-10-25T02:10:37.941Z,12.48
2022-10-25T02:13:09.893Z,12.52
2022-10-25T02:16:04.663Z,12.57
2022-10-25T02:18:36.451Z,12.60
2022-10-25T02:21:05.542Z,12.60
2022-10-25T02:23:36.161Z,12.63
2022-10-25T02:26:07.319Z,12.58
2022-10-25T02:28:38.248Z,12.59
2022-10-25T02:31:09.701Z,12.55
2022-10-25T02:33:37.658Z,12.49
2022-10-25T02:36:24.032Z,12.53
2022-10-25T02:38:52.154Z,12.55
2022-10-25T02:41:22.254Z,12.57
2022-10-25T02:43:49.183Z,12.61
2022-10-25T02:46:18.914Z,12.66
2022-10-25T02:48:46.709Z,12.68
2022-10-25T02:51:14.333Z,12.68
2022-10-25T02:53:41.542Z,12.57
2022-10-25T02:56:12.367Z,12.55
2022-10-25T02:58:40.731Z,12.58
2022-10-25T03:01:08.000Z,12.55
2022-10-25T03:03:35.230Z,12.57
2022-10-25T03:06:02.611Z,12.58
2022-10-25T03:08:29.465Z,12.56
2022-10-25T03:10:56.221Z,12.52
2022-10-25T03:13:23.314Z,12.52
2022-10-25T03:15:50.233Z,12.53
2022-10-25T03:18:17.308Z,12.58
2022-10-25T03:20:44.681Z,12.58
2022-10-25T03:23:12.034Z,12.57
2022-10-25T03:25:38.876Z,12.51
2022-10-25T03:28:05.544Z,12.56
2022-10-25T03:30:32.390Z,12.57
2022-10-25T03:32:59.509Z,12.60
2022-10-25T03:35:26.950Z,12.60
2022-10-25T03:37:53.881Z,12.64
2022-10-25T03:40:21.175Z,12.65
2022-10-25T03:42:48.067Z,12.66
2022-10-25T03:45:14.675Z,12.67
2022-10-25T03:47:41.334Z,12.66
2022-10-25T03:50:08.301Z,12.66
2022-10-25T03:52:35.208Z,12.69
2022-10-25T03:55:02.111Z,12.67
2022-10-25T03:57:28.865Z,12.68
2022-10-25T03:59:55.509Z,12.67
2022-10-25T04:02:22.149Z,12.70
2022-10-25T04:04:48.801Z,12.71
2022-10-25T04:07:15.458Z,12.73
2022-10-25T04:09:41.999Z,12.69
2022-10-25T04:12:08.707Z,12.71
2022-10-25T04:14:35.292Z,12.69
2022-10-25T04:17:01.865Z,12.67
2022-10-25T04:19:28.505Z,12.65
2022-10-25T04:21:55.093Z,12.69
2022-10-25T04:24:22.755Z,12.69
2022-10-25T04:26:49.352Z,12.68
2022-10-25T04:29:17.417Z,12.69
2022-10-25T04:31:44.458Z,12.70
2022-10-25T04:34:12.782Z,12.71
2022-10-25T04:36:39.417Z,12.70
2022-10-25T04:39:06.402Z,12.68
2022-10-25T04:41:32.971Z,12.68
2022-10-25T04:43:59.583Z,12.69
2022-10-25T04:46:26.243Z,12.67
2022-10-25T04:48:52.832Z,12.62
2022-10-25T04:51:19.387Z,12.58
2022-10-25T04:53:45.962Z,12.58
2022-10-25T04:56:14.402Z,12.49
2022-10-25T04:58:41.509Z,12.39
2022-10-25T05:01:11.287Z,12.34
2022-10-25T05:03:38.470Z,12.36
2022-10-25T05:06:10.422Z,12.33
2022-10-25T05:08:40.788Z,12.31
2022-10-25T05:11:10.211Z,12.34
2022-10-25T05:13:39.659Z,12.43
2022-10-25T05:16:07.378Z,12.45
2022-10-25T05:18:35.153Z,12.42
2022-10-25T05:21:04.883Z,12.43
2022-10-25T05:23:33.291Z,12.42
2022-10-25T05:26:21.306Z,12.44
2022-10-25T05:28:50.283Z,12.46
2022-10-25T05:31:20.273Z,12.51
2022-10-25T05:33:50.116Z,12.54
2022-10-25T05:36:17.064Z,12.54
2022-10-25T05:38:43.734Z,12.54
2022-10-25T05:41:12.353Z,12.58
2022-10-25T05:43:39.951Z,12.58
2022-10-25T05:46:10.618Z,12.61
2022-10-25T05:48:37.871Z,12.57
2022-10-25T05:51:40.356Z,12.62
2022-10-25T05:54:10.463Z,12.62
2022-10-25T05:56:38.203Z,12.61
2022-10-25T05:59:13.169Z,12.62
2022-10-25T06:01:41.872Z,12.62
2022-10-25T06:04:09.736Z,12.65
2022-10-25T06:06:38.582Z,12.63
2022-10-25T06:09:06.169Z,12.65
2022-10-25T06:11:33.425Z,12.65
2022-10-25T06:14:00.227Z,12.65
2022-10-25T06:16:26.816Z,12.63
2022-10-25T06:18:54.155Z,12.63
2022-10-25T06:21:27.464Z,12.65
2022-10-25T06:23:55.392Z,12.70
2022-10-25T06:26:24.839Z,12.66
2022-10-25T06:28:53.666Z,12.61
2022-10-25T06:31:20.531Z,12.62
2022-10-25T06:33:47.454Z,12.64
2022-10-25T06:36:16.950Z,12.57
2022-10-25T06:38:44.546Z,12.61
2022-10-25T06:41:22.449Z,12.67
2022-10-25T06:43:49.689Z,12.69
2022-10-25T06:46:28.804Z,12.76
2022-10-25T06:48:56.903Z,12.78
2022-10-25T06:51:25.636Z,12.89
2022-10-25T06:54:00.923Z,12.97
2022-10-25T06:56:28.901Z,12.91
2022-10-25T06:58:55.930Z,12.88
2022-10-25T07:01:24.599Z,12.97
2022-10-25T07:03:53.797Z,13.00
2022-10-25T07:06:27.489Z,12.95
2022-10-25T07:08:56.747Z,13.00
2022-10-25T07:11:25.560Z,12.96
2022-10-25T07:13:52.547Z,13.00
2022-10-25T07:16:21.121Z,13.08
2022-10-25T07:18:48.974Z,13.13
2022-10-25T07:21:16.764Z,13.10
2022-10-25T07:23:43.866Z,13.08
2022-10-25T07:26:22.133Z,13.17
2022-10-25T07:28:51.043Z,13.19
2022-10-25T07:31:20.788Z,13.25
2022-10-25T07:33:48.377Z,13.23
2022-10-25T07:36:15.187Z,13.19
2022-10-25T07:38:41.795Z,13.09
2022-10-25T07:41:09.363Z,13.17
2022-10-25T07:43:36.033Z,13.26
2022-10-25T07:46:03.217Z,13.56
2022-10-25T07:48:29.809Z,13.65
2022-10-25T07:50:56.391Z,13.65
2022-10-25T07:53:23.691Z,13.80
2022-10-25T07:55:57.303Z,13.93
2022-10-25T07:58:23.871Z,14.07
2022-10-25T08:00:50.540Z,14.04
2022-10-25T08:03:18.375Z,13.90
2022-10-25T08:05:46.733Z,13.88
2022-10-25T08:08:14.084Z,13.86
2022-10-25T08:10:44.647Z,14.36
2022-10-25T08:13:11.814Z,14.94
2022-10-25T08:15:40.948Z,14.91
2022-10-25T08:18:09.532Z,14.93
2022-10-25T08:21:01.163Z,14.63
2022-10-25T08:23:23.675Z,14.45
2022-10-25T08:25:50.333Z,14.20
2022-10-25T08:28:17.672Z,14.10
2022-10-25T08:30:44.273Z,14.17
2022-10-25T08:33:11.926Z,14.09
2022-10-25T08:35:39.304Z,14.10
2022-10-25T08:38:06.631Z,14.15
2022-10-25T08:40:50.050Z,14.31
2022-10-25T08:43:47.849Z,14.43
2022-10-25T08:46:26.043Z,14.67
2022-10-25T08:49:02.543Z,14.99
2022-10-25T08:51:35.822Z,14.83
2022-10-25T08:54:13.481Z,14.65
2022-10-25T08:56:56.524Z,14.70
2022-10-25T08:59:30.148Z,14.89
2022-10-25T09:02:00.110Z,15.04
2022-10-25T09:04:29.360Z,15.17
2022-10-25T09:07:08.422Z,15.23
2022-10-25T09:09:46.745Z,15.41
2022-10-25T09:12:20.058Z,15.16
2022-10-25T09:15:07.999Z,15.32
2022-10-25T09:17:53.651Z,15.44
2022-10-25T09:20:46.405Z,15.54
2022-10-25T09:23:24.386Z,15.44
2022-10-25T09:26:04.557Z,15.49
2022-10-25T09:28:42.895Z,15.37
2022-10-25T09:31:15.426Z,15.16
2022-10-25T09:33:46.379Z,15.22
2022-10-25T09:36:14.995Z,15.06
2022-10-25T09:38:52.083Z,15.18
2022-10-25T09:41:48.619Z,15.34
2022-10-25T09:44:25.890Z,15.42
2022-10-25T09:47:03.626Z,15.36
2022-10-25T09:49:48.666Z,15.15
2022-10-25T09:52:20.707Z,15.13
2022-10-25T09:54:53.598Z,15.10
2022-10-25T09:57:20.561Z,14.93
2022-10-25T09:59:50.630Z,14.75
2022-10-25T10:02:24.297Z,14.65
2022-10-25T10:04:51.772Z,14.51
2022-10-25T10:07:32.876Z,14.48
2022-10-25T10:10:04.433Z,14.30
2022-10-25T10:12:39.325Z,14.39
2022-10-25T10:15:15.711Z,14.46
2022-10-25T10:17:42.299Z,14.57
2022-10-25T10:20:09.211Z,14.62
2022-10-25T10:22:43.979Z,14.85
2022-10-25T10:25:19.827Z,14.95
2022-10-25T10:27:48.944Z,14.98
2022-10-25T10:30:23.316Z,15.11
2022-10-25T10:32:57.331Z,15.44
2022-10-25T10:35:35.712Z,15.68
2022-10-25T10:38:24.292Z,15.64
2022-10-25T10:41:11.975Z,15.66
2022-10-25T10:43:38.572Z,15.69
2022-10-25T10:46:09.918Z,15.59
2022-10-25T10:48:42.878Z,15.61
2022-10-25T10:51:31.873Z,15.53
2022-10-25T10:54:13.345Z,15.37
2022-10-25T10:56:40.035Z,15.32
2022-10-25T10:59:26.022Z,15.24
2022-10-25T11:01:52.840Z,14.97
2022-10-25T11:04:21.020Z,15.00
2022-10-25T11:06:49.576Z,14.98
2022-10-25T11:09:23.549Z,14.96
2022-10-25T11:12:14.906Z,15.04
2022-10-25T11:14:42.820Z,15.17
2022-10-25T11:17:19.348Z,15.25
2022-10-25T11:20:02.391Z,15.40
2022-10-25T11:22:51.895Z,15.62
2022-10-25T11:25:25.469Z,15.65
2022-10-25T11:28:17.854Z,15.43
2022-10-25T11:30:59.543Z,15.46
2022-10-25T11:33:37.827Z,15.62
2022-10-25T11:36:23.169Z,15.83
2022-10-25T11:39:04.841Z,15.78
2022-10-25T11:41:45.282Z,15.93
2022-10-25T11:44:28.117Z,16.47
2022-10-25T11:47:20.589Z,17.00
2022-10-25T11:50:13.439Z,16.84
2022-10-25T11:53:04.390Z,16.73
2022-10-25T11:55:33.619Z,16.62
2022-10-25T11:58:19.388Z,16.36
2022-10-25T12:01:04.661Z,16.39
2022-10-25T12:03:49.343Z,16.52
2022-10-25T12:06:27.627Z,16.89
2022-10-25T12:09:12.797Z,17.08
2022-10-25T12:11:50.563Z,17.17
2022-10-25T12:14:28.000Z,17.16
2022-10-25T12:16:57.785Z,16.82
2022-10-25T12:19:29.813Z,16.55
2022-10-25T12:22:03.929Z,16.52
2022-10-25T12:24:46.475Z,16.55
2022-10-25T12:27:17.310Z,16.44
2022-10-25T12:29:48.043Z,16.42
2022-10-25T12:32:22.375Z,16.38
2022-10-25T12:34:57.616Z,16.41
2022-10-25T12:37:55.106Z,16.38
2022-10-25T12:40:25.925Z,16.52
2022-10-25T12:43:06.631Z,16.59
2022-10-25T12:45:33.159Z,16.74
2022-10-25T12:48:18.573Z,16.67
2022-10-25T12:50:58.923Z,16.63
2022-10-25T12:54:08.940Z,16.52
2022-10-25T12:56:51.171Z,16.41
2022-10-25T12:59:49.770Z,16.48
2022-10-25T13:03:04.398Z,16.38
2022-10-25T13:05:33.729Z,16.43
2022-10-25T13:08:03.682Z,16.58
2022-10-25T13:10:35.943Z,16.51
2022-10-25T13:13:06.651Z,16.56
2022-10-25T13:15:55.255Z,16.93
2022-10-25T13:18:47.291Z,16.89
2022-10-25T13:21:54.770Z,16.85
2022-10-25T13:24:43.957Z,16.70
2022-10-25T13:27:16.399Z,16.50
2022-10-25T13:30:01.655Z,16.18
2022-10-25T13:32:42.036Z,16.50
2022-10-25T13:35:20.628Z,16.63
2022-10-25T13:37:53.114Z,16.53
2022-10-25T13:40:29.858Z,16.43
2022-10-25T13:43:01.090Z,16.35
2022-10-25T13:45:37.861Z,16.23
2022-10-25T13:48:13.234Z,16.22
2022-10-25T13:50:46.171Z,16.24
2022-10-25T13:53:24.038Z,16.19
2022-10-25T13:55:59.278Z,16.25
2022-10-25T13:58:31.608Z,16.28
2022-10-25T14:01:18.788Z,16.21
2022-10-25T14:03:51.715Z,16.07
2022-10-25T14:06:43.774Z,15.58
2022-10-25T14:09:27.887Z,15.40
2022-10-25T14:12:12.013Z,15.24
2022-10-25T14:14:56.782Z,15.41
2022-10-25T14:17:35.901Z,15.42
2022-10-25T14:20:09.413Z,15.25
2022-10-25T14:22:40.299Z,15.40
2022-10-25T14:25:31.021Z,15.65
2022-10-25T14:28:26.873Z,16.01
2022-10-25T14:30:55.206Z,16.09
2022-10-25T14:33:37.973Z,16.02
2022-10-25T14:36:22.254Z,15.90
2022-10-25T14:38:51.927Z,15.72
2022-10-25T14:41:27.157Z,15.50
2022-10-25T14:43:54.733Z,15.26
2022-10-25T14:46:26.071Z,15.19
2022-10-25T14:49:00.623Z,15.19
2022-10-25T14:51:30.717Z,15.17
2022-10-25T14:54:01.878Z,15.17
2022-10-25T14:56:38.363Z,15.13
2022-10-25T14:59:08.288Z,15.20
2022-10-25T15:01:35.393Z,15.16
2022-10-25T15:04:02.143Z,15.17
2022-10-25T15:06:31.484Z,15.25
2022-10-25T15:09:36.962Z,15.22
2022-10-25T15:12:12.061Z,15.41
2022-10-25T15:14:38.669Z,15.46
2022-10-25T15:17:18.848Z,15.36
2022-10-25T15:20:04.237Z,15.23
2022-10-25T15:22:49.823Z,15.15
2022-10-25T15:25:22.708Z,15.07
2022-10-25T15:27:55.585Z,14.88
2022-10-25T15:30:37.315Z,14.70
2022-10-25T15:33:09.038Z,14.49
2022-10-25T15:35:42.944Z,14.32
2022-10-25T15:38:10.615Z,14.21
2022-10-25T15:40:38.857Z,14.05
2022-10-25T15:43:05.537Z,13.90
2022-10-25T15:45:33.545Z,13.78
2022-10-25T15:48:00.292Z,13.64
2022-10-25T15:50:27.145Z,13.54
2022-10-25T15:52:53.994Z,13.44
2022-10-25T15:55:27.303Z,13.42
2022-10-25T15:57:55.069Z,13.31
2022-10-25T16:00:27.134Z,13.18
2022-10-25T16:02:55.832Z,13.14
2022-10-25T16:05:25.826Z,13.10
2022-10-25T16:07:52.486Z,12.99
2022-10-25T16:10:20.748Z,12.91
2022-10-25T16:12:54.596Z,12.82
2022-10-25T16:15:23.983Z,12.61
2022-10-25T16:17:50.558Z,12.32
2022-10-25T16:20:20.551Z,12.13
2022-10-25T16:22:48.147Z,12.01
2022-10-25T16:25:15.997Z,11.89
2022-10-25T16:27:43.448Z,11.71
2022-10-25T16:30:18.927Z,11.60
2022-10-25T16:32:46.115Z,11.45
2022-10-25T16:35:13.973Z,11.26
2022-10-25T16:37:40.667Z,11.13
2022-10-25T16:40:07.856Z,11.01
2022-10-25T16:42:36.412Z,10.95
2022-10-25T16:45:27.691Z,10.85
2022-10-25T16:47:56.588Z,10.82
2022-10-25T16:50:25.058Z,10.80
2022-10-25T16:52:52.663Z,10.75
2022-10-25T16:55:19.743Z,10.64
2022-10-25T17:00:18.565Z,10.46
2022-10-25T17:02:45.297Z,10.44
2022-10-25T17:05:24.138Z,10.45
2022-10-25T17:07:51.007Z,10.51
2022-10-25T17:10:19.589Z,10.53
2022-10-25T17:12:51.454Z,10.55
2022-10-25T17:15:19.292Z,10.44
2022-10-25T17:17:46.547Z,10.39
2022-10-25T17:20:16.137Z,10.38
2022-10-25T17:22:43.472Z,10.29
2022-10-25T17:25:10.806Z,10.17
2022-10-25T17:27:45.239Z,10.14
2022-10-25T17:30:12.370Z,10.09
2022-10-25T17:32:38.929Z,10.02
2022-10-25T17:35:05.965Z,9.91
2022-10-25T17:37:32.763Z,9.82
2022-10-25T17:39:59.873Z,9.81
2022-10-25T17:42:28.263Z,9.81
2022-10-25T17:44:55.186Z,9.72
2022-10-25T17:47:21.748Z,9.70
2022-10-25T17:49:48.413Z,9.67
2022-10-25T17:52:14.951Z,9.57
2022-10-25T17:54:41.611Z,9.53
2022-10-25T17:57:08.218Z,9.46
2022-10-25T17:59:35.737Z,9.41
2022-10-25T18:02:02.924Z,9.40
2022-10-25T18:04:41.871Z,9.34
2022-10-25T18:07:16.195Z,9.25
2022-10-25T18:09:42.777Z,9.23
2022-10-25T18:12:09.722Z,9.23
2022-10-25T18:14:36.431Z,9.11
2022-10-25T18:17:03.482Z,9.07
2022-10-25T18:19:30.039Z,9.05
2022-10-25T18:22:00.423Z,8.99
2022-10-25T18:24:29.167Z,9.00
2022-10-25T18:26:56.299Z,8.98
2022-10-25T18:29:23.589Z,8.96
2022-10-25T18:31:50.275Z,8.90
2022-10-25T18:34:16.940Z,8.89
2022-10-25T18:36:43.705Z,8.92
2022-10-25T18:39:10.309Z,8.89
2022-10-25T18:41:36.994Z,8.80
2022-10-25T18:44:03.686Z,8.71
2022-10-25T18:46:32.050Z,8.71
2022-10-25T18:48:58.654Z,8.75
2022-10-25T18:51:29.349Z,8.70
2022-10-25T18:53:57.708Z,8.69
2022-10-25T18:56:24.789Z,8.60
2022-10-25T18:58:51.838Z,8.55
2022-10-25T19:01:22.707Z,8.55
2022-10-25T19:03:50.457Z,8.55
2022-10-25T19:06:18.213Z,8.56
2022-10-25T19:08:44.795Z,8.53
2022-10-25T19:11:13.545Z,8.50
2022-10-25T19:13:40.838Z,8.56
2022-10-25T19:16:08.331Z,8.71
2022-10-25T19:18:36.462Z,8.65
2022-10-25T19:21:04.308Z,8.67
2022-10-25T19:23:31.762Z,8.70
2022-10-25T19:26:05.741Z,8.78
2022-10-25T19:28:33.167Z,8.85
2022-10-25T19:31:10.363Z,8.91
2022-10-25T19:33:36.925Z,8.97
2022-10-25T19:36:09.292Z,9.05
2022-10-25T19:38:37.038Z,9.00
2022-10-25T19:41:06.238Z,8.92
2022-10-25T19:43:33.829Z,8.88
2022-10-25T19:46:02.500Z,9.00
2022-10-25T19:48:29.074Z,9.22
2022-10-25T19:50:55.889Z,9.28
2022-10-25T19:53:23.150Z,9.19
2022-10-25T19:56:02.839Z,9.04
2022-10-25T19:58:29.652Z,8.92
2022-10-25T20:01:01.442Z,8.99
2022-10-25T20:03:28.314Z,9.12
2022-10-25T20:06:02.622Z,9.12
2022-10-25T20:08:32.361Z,9.30
2022-10-25T20:10:59.075Z,9.48
2022-10-25T20:13:25.818Z,9.81
2022-10-25T20:15:55.479Z,10.11
2022-10-25T20:18:24.109Z,10.21
2022-10-25T20:20:53.829Z,10.32
2022-10-25T20:23:20.584Z,10.58
2022-10-25T20:25:47.149Z,10.63
2022-10-25T20:28:13.772Z,10.62
2022-10-25T20:30:40.939Z,10.54
2022-10-25T20:33:08.332Z,10.48
2022-10-25T20:35:39.708Z,10.57
2022-10-25T20:38:07.699Z,10.67
2022-10-25T20:40:34.871Z,10.67
2022-10-25T20:43:01.591Z,10.51
2022-10-25T20:45:29.602Z,10.54
2022-10-25T20:47:57.997Z,10.76
2022-10-25T20:50:26.410Z,10.98
2022-10-25T20:55:39.890Z,11.38
2022-10-25T20:58:06.893Z,11.40
2022-10-25T21:00:33.594Z,11.47
2022-10-25T21:03:00.237Z,11.51
2022-10-25T21:05:27.058Z,11.51
2022-10-25T21:07:53.696Z,11.50
2022-10-25T21:10:20.521Z,11.48
2022-10-25T21:12:47.492Z,11.46
2022-10-25T21:15:14.100Z,11.48
2022-10-25T21:17:40.663Z,11.53
2022-10-25T21:20:07.991Z,11.54
2022-10-25T21:22:34.642Z,11.52
2022-10-25T21:25:01.209Z,11.56
2022-10-25T21:27:27.803Z,11.61
2022-10-25T21:29:54.345Z,11.64
2022-10-25T21:32:21.098Z,11.64
2022-10-25T21:34:47.715Z,11.61
2022-10-25T21:37:14.314Z,11.63
2022-10-25T21:39:42.227Z,11.63
2022-10-25T21:42:09.673Z,11.64
2022-10-25T21:44:36.252Z,11.67
2022-10-25T21:47:02.820Z,11.72
2022-10-25T21:49:29.395Z,11.78
2022-10-25T21:51:55.949Z,11.81
2022-10-25T21:54:22.837Z,11.80
2022-10-25T21:56:52.476Z,11.77
2022-10-25T21:59:20.149Z,11.78
2022-10-25T22:01:47.103Z,11.80
2022-10-25T22:04:14.067Z,11.80
2022-10-25T22:06:40.685Z,11.80
2022-10-25T22:09:07.355Z,11.84
2022-10-25T22:11:36.840Z,11.87
2022-10-25T22:14:05.661Z,11.89
2022-10-25T22:16:34.425Z,11.90
2022-10-25T22:19:03.959Z,11.93
2022-10-25T22:21:33.234Z,11.95
2022-10-25T22:23:59.879Z,11.95
2022-10-25T22:26:26.778Z,11.98
2022-10-25T22:28:55.328Z,11.97
2022-10-25T22:31:22.919Z,11.99
2022-10-25T22:33:54.743Z,12.01
2022-10-25T22:36:23.948Z,12.02
2022-10-25T22:38:50.588Z,12.05
2022-10-25T22:41:19.975Z,12.10
2022-10-25T22:43:47.634Z,12.12
2022-10-25T22:46:15.278Z,12.12
2022-10-25T22:48:43.587Z,12.12
2022-10-25T22:51:11.215Z,12.12
2022-10-25T22:53:38.640Z,12.16
2022-10-25T22:56:08.311Z,12.22
2022-10-25T22:58:36.147Z,12.25
2022-10-25T23:01:11.626Z,12.26
2022-10-25T23:03:46.239Z,12.31
2022-10-25T23:06:15.188Z,12.31
2022-10-25T23:08:42.088Z,12.30
2022-10-25T23:11:16.932Z,12.34
2022-10-25T23:13:44.389Z,12.32
2022-10-25T23:16:12.133Z,12.37
2022-10-25T23:18:39.606Z,12.42
2022-10-25T23:21:09.803Z,12.44
2022-10-25T23:23:39.578Z,12.49
2022-10-25T23:26:09.399Z,12.52
2022-10-25T23:28:35.959Z,12.58
2022-10-25T23:31:07.783Z,12.68
2022-10-25T23:33:34.824Z,12.79
2022-10-25T23:36:03.445Z,12.85
2022-10-25T23:38:30.644Z,12.81
2022-10-25T23:40:57.244Z,12.80
2022-10-25T23:43:23.850Z,12.84
2022-10-25T23:45:50.722Z,12.82
2022-10-25T23:48:17.316Z,12.84
2022-10-25T23:50:44.071Z,12.84
2022-10-25T23:53:10.738Z,12.92
2022-10-25T23:55:38.744Z,12.95
2022-10-25T23:58:05.583Z,12.98
